Time;durP1;ratioP1;P1;durP2;ratioP2;P2;SDS_P1;SDS_P2;PMS_P1;PMS_P2;Temp;Humidity;BMP_temperature;BMP_pressure;BME280_temperature;BME280_humidity;BME280_pressure;Samples;Min_cycle;Max_cycle;Signal;HPM_P1;HPM_P2
2022/09/21 00:01:43;;;;;;;4.63;3.90;;;11.80;99.90;;;;;;4967122;28;20200;-94
2022/09/21 00:04:09;;;;;;;4.97;4.38;;;11.80;99.90;;;;;;4946457;28;20212;-95
2022/09/21 00:06:36;;;;;;;4.60;3.80;;;11.80;99.90;;;;;;4978816;28;20583;-93
2022/09/21 00:09:03;;;;;;;5.67;4.47;;;11.90;99.90;;;;;;4962954;28;20501;-96
2022/09/21 00:11:31;;;;;;;9.73;4.82;;;11.90;99.90;;;;;;4964393;28;20465;-94
2022/09/21 00:14:00;;;;;;;6.05;4.40;;;11.90;99.90;;;;;;4979142;28;20650;-95
2022/09/21 00:16:26;;;;;;;7.07;4.50;;;11.80;99.90;;;;;;4961880;28;20223;-94
2022/09/21 00:18:52;;;;;;;7.65;4.85;;;11.80;99.90;;;;;;4961849;28;20181;-95
2022/09/21 00:21:18;;;;;;;5.83;4.63;;;11.80;99.90;;;;;;4962067;28;20279;-93
2022/09/21 00:23:44;;;;;;;6.30;4.90;;;11.80;99.90;;;;;;4980628;28;20227;-95
2022/09/21 00:26:17;;;;;;;6.43;3.90;;;11.80;99.90;;;;;;4970785;28;20188;-95
2022/09/21 00:28:43;;;;;;;8.38;4.28;;;11.80;99.90;;;;;;4965389;28;20276;-95
2022/09/21 00:31:16;;;;;;;7.32;4.93;;;11.90;99.90;;;;;;4962987;28;20184;-93
2022/09/21 00:33:43;;;;;;;5.57;4.13;;;11.90;99.90;;;;;;4985762;28;20149;-94
2022/09/21 00:36:11;;;;;;;7.82;4.80;;;11.90;99.90;;;;;;4961423;28;20228;-93
2022/09/21 00:38:37;;;;;;;5.78;3.85;;;12.00;99.90;;;;;;4962578;28;20180;-95
2022/09/21 00:41:05;;;;;;;6.95;5.05;;;12.00;99.90;;;;;;4961041;28;20205;-95
2022/09/21 00:43:39;;;;;;;10.67;5.43;;;12.00;99.90;;;;;;4960968;28;20323;-93
2022/09/21 00:46:21;;;;;;;8.73;4.93;;;12.00;99.90;;;;;;4961117;28;20456;-95
2022/09/21 00:48:50;;;;;;;6.18;4.55;;;12.00;99.90;;;;;;4961386;28;20187;-93
2022/09/21 00:51:16;;;;;;;6.03;4.22;;;12.00;99.90;;;;;;4962110;28;20180;-93
2022/09/21 00:53:42;;;;;;;6.32;4.45;;;12.00;99.90;;;;;;4977892;28;20179;-93
2022/09/21 00:56:11;;;;;;;6.07;4.43;;;12.00;99.90;;;;;;4960696;28;20228;-93
2022/09/21 00:58:43;;;;;;;5.07;4.45;;;12.00;99.90;;;;;;4961060;28;20422;-93
2022/09/21 01:01:10;;;;;;;8.18;4.93;;;12.00;99.90;;;;;;4960849;28;20188;-94
2022/09/21 01:03:37;;;;;;;6.35;4.45;;;11.90;99.90;;;;;;4962389;28;20180;-93
2022/09/21 01:06:03;;;;;;;6.35;4.20;;;11.90;99.90;;;;;;4962399;28;20212;-95
2022/09/21 01:08:29;;;;;;;5.93;4.27;;;11.90;99.90;;;;;;4979504;28;20173;-92
2022/09/21 01:11:15;;;;;;;10.73;5.60;;;11.90;99.90;;;;;;4986981;28;20442;-95
2022/09/21 01:13:56;;;;;;;9.60;5.50;;;11.90;99.90;;;;;;4962130;28;20498;-93
2022/09/21 01:16:39;;;;;;;7.50;4.55;;;11.90;99.90;;;;;;4987217;28;20223;-94
2022/09/21 01:19:10;;;;;;;8.85;4.97;;;12.00;99.90;;;;;;4968622;28;20232;-94
2022/09/21 01:22:04;;;;;;;8.52;5.63;;;12.00;99.90;;;;;;4981612;28;20192;-95
2022/09/21 01:24:56;;;;;;;6.32;5.00;;;12.00;99.90;;;;;;4977001;28;20192;-92
2022/09/21 01:27:36;;;;;;;6.65;5.00;;;12.00;99.90;;;;;;4934408;28;20654;-92
2022/09/21 01:30:10;;;;;;;11.52;5.70;;;12.00;99.90;;;;;;4977761;28;20192;-95
2022/09/21 01:33:29;;;;;;;7.68;5.22;;;12.00;99.90;;;;;;4961287;28;20191;-96
2022/09/21 01:36:00;;;;;;;8.20;4.82;;;12.00;99.90;;;;;;4945262;28;20245;-94
2022/09/21 01:38:34;;;;;;;9.40;4.70;;;12.00;99.90;;;;;;4977126;28;20165;-95
2022/09/21 01:41:03;;;;;;;6.78;5.43;;;12.00;99.90;;;;;;4977837;28;20223;-93
2022/09/21 01:43:44;;;;;;;5.68;4.70;;;12.00;99.90;;;;;;4962234;28;20199;-94
2022/09/21 01:46:19;;;;;;;7.45;4.90;;;12.00;99.90;;;;;;4977332;28;20188;-94
2022/09/21 01:48:53;;;;;;;6.25;4.80;;;12.10;99.90;;;;;;4960032;28;20223;-94
2022/09/21 01:51:21;;;;;;;6.75;5.05;;;12.10;99.90;;;;;;4967067;28;20195;-93
2022/09/21 01:54:08;;;;;;;6.28;4.72;;;12.10;99.90;;;;;;4983008;28;20203;-93
2022/09/21 01:56:45;;;;;;;7.57;4.97;;;12.20;99.90;;;;;;4962077;28;20351;-95
2022/09/21 01:59:26;;;;;;;6.20;5.00;;;12.20;99.90;;;;;;4972044;28;20203;-93
2022/09/21 02:01:58;;;;;;;7.20;5.03;;;12.20;99.90;;;;;;4961522;28;20808;-93
2022/09/21 02:04:24;;;;;;;6.47;4.70;;;12.20;99.90;;;;;;4978120;28;20425;-92
2022/09/21 02:06:52;;;;;;;7.40;5.20;;;12.20;99.90;;;;;;4960695;28;20626;-95
2022/09/21 02:09:19;;;;;;;6.18;4.70;;;12.30;99.90;;;;;;4976888;28;20196;-94
2022/09/21 02:11:45;;;;;;;10.20;5.72;;;12.30;99.90;;;;;;4976882;28;20176;-96
2022/09/21 02:14:14;;;;;;;6.47;5.50;;;12.30;99.90;;;;;;4976227;28;20199;-95
2022/09/21 02:17:10;;;;;;;6.55;5.05;;;12.30;99.90;;;;;;4959811;28;20230;-95
2022/09/21 02:19:49;;;;;;;7.32;4.68;;;12.30;99.90;;;;;;4977075;28;20220;-95
2022/09/21 02:22:21;;;;;;;11.03;5.30;;;12.30;99.90;;;;;;4960460;28;20187;-94
2022/09/21 02:24:52;;;;;;;8.60;6.57;;;12.40;99.90;;;;;;4959788;28;20434;-96
2022/09/21 02:27:45;;;;;;;8.67;5.30;;;12.40;99.90;;;;;;4961087;28;20272;-95
2022/09/21 02:30:18;;;;;;;7.00;5.53;;;12.40;99.90;;;;;;4968761;28;20446;-92
2022/09/21 02:33:08;;;;;;;9.10;5.70;;;12.30;99.90;;;;;;4962625;28;20545;-94
2022/09/21 02:35:47;;;;;;;6.35;5.15;;;12.30;99.90;;;;;;4960796;28;20512;-95
2022/09/21 02:38:35;;;;;;;6.60;4.87;;;12.30;99.90;;;;;;4959967;28;20231;-92
2022/09/21 02:41:41;;;;;;;7.50;5.38;;;12.30;99.90;;;;;;4964535;28;20454;-95
2022/09/21 02:44:14;;;;;;;8.73;5.93;;;12.30;99.90;;;;;;4932994;28;20223;-92
2022/09/21 02:46:55;;;;;;;6.22;4.75;;;12.30;99.90;;;;;;4976078;28;20185;-95
2022/09/21 02:49:36;;;;;;;7.53;5.35;;;12.30;99.90;;;;;;4976161;28;20205;-92
2022/09/21 02:52:08;;;;;;;6.63;5.30;;;12.30;99.90;;;;;;4958942;28;20188;-94
2022/09/21 02:54:36;;;;;;;6.35;4.70;;;12.30;99.90;;;;;;4958874;28;20299;-94
2022/09/21 02:57:05;;;;;;;8.20;5.27;;;12.30;99.90;;;;;;4961438;28;20227;-92
2022/09/21 02:59:31;;;;;;;7.13;6.40;;;12.30;99.90;;;;;;4975306;28;20852;-95
2022/09/21 03:01:57;;;;;;;7.70;5.70;;;12.30;99.90;;;;;;4958993;28;20465;-94
2022/09/21 03:04:24;;;;;;;8.87;5.13;;;12.40;99.90;;;;;;4958852;28;20426;-93
2022/09/21 03:06:49;;;;;;;8.18;6.15;;;12.40;99.90;;;;;;4958842;28;20437;-93
2022/09/21 03:09:16;;;;;;;6.50;5.10;;;12.40;99.90;;;;;;4976321;28;20192;-96
2022/09/21 03:11:42;;;;;;;7.53;5.65;;;12.40;99.90;;;;;;4964233;28;20254;-95
2022/09/21 03:14:08;;;;;;;6.47;5.10;;;12.50;99.90;;;;;;4983780;28;20196;-95
2022/09/21 03:16:35;;;;;;;6.70;4.97;;;12.50;99.90;;;;;;4977590;28;20974;-95
2022/09/21 03:19:00;;;;;;;6.20;5.37;;;12.50;99.90;;;;;;4978977;28;20413;-94
2022/09/21 03:21:26;;;;;;;6.43;5.10;;;12.50;99.90;;;;;;4977594;28;20900;-92
2022/09/21 03:23:52;;;;;;;7.90;5.57;;;12.60;99.90;;;;;;4978125;28;20546;-94
2022/09/21 03:26:21;;;;;;;6.90;5.00;;;12.60;99.90;;;;;;4960599;28;20393;-95
2022/09/21 03:28:48;;;;;;;8.23;5.97;;;12.60;99.90;;;;;;4960407;28;20712;-93
2022/09/21 03:31:13;;;;;;;6.50;4.80;;;12.60;99.90;;;;;;4967370;28;20453;-94
2022/09/21 03:33:39;;;;;;;8.47;5.90;;;12.60;99.90;;;;;;4986959;28;20402;-92
2022/09/21 03:36:05;;;;;;;9.20;6.10;;;12.60;99.90;;;;;;4969355;28;20589;-92
2022/09/21 03:38:30;;;;;;;7.43;5.50;;;12.60;99.90;;;;;;4976478;28;20192;-94
2022/09/21 03:40:56;;;;;;;7.73;5.33;;;12.60;99.90;;;;;;4958973;28;20830;-95
2022/09/21 03:43:23;;;;;;;8.90;5.30;;;12.60;99.90;;;;;;4975663;28;20169;-92
2022/09/21 03:45:48;;;;;;;10.33;5.77;;;12.60;99.90;;;;;;4958659;28;20453;-95
2022/09/21 03:48:15;;;;;;;7.20;6.27;;;12.70;99.90;;;;;;4977069;28;20411;-92
2022/09/21 03:50:42;;;;;;;8.53;6.20;;;12.70;99.90;;;;;;4981535;28;20270;-95
2022/09/21 03:53:09;;;;;;;8.30;5.73;;;12.70;99.90;;;;;;4961758;28;20531;-95
2022/09/21 03:55:34;;;;;;;8.40;5.50;;;12.70;99.90;;;;;;4967223;28;20462;-95
2022/09/21 03:58:00;;;;;;;8.47;5.93;;;12.70;99.90;;;;;;4988991;28;20402;-92
2022/09/21 04:00:26;;;;;;;11.53;6.43;;;12.70;99.90;;;;;;4984684;28;20197;-93
2022/09/21 04:02:52;;;;;;;7.83;5.63;;;12.70;99.90;;;;;;4988079;28;20438;-94
2022/09/21 04:05:18;;;;;;;9.90;6.27;;;12.70;99.90;;;;;;4964768;28;20446;-94
2022/09/21 04:07:47;;;;;;;6.83;5.10;;;12.80;99.90;;;;;;4979612;28;20181;-96
2022/09/21 04:10:16;;;;;;;11.63;6.00;;;12.80;99.90;;;;;;4979405;28;20401;-95
2022/09/21 04:12:43;;;;;;;26.83;16.30;;;12.80;99.90;;;;;;4964120;28;20939;-93
2022/09/21 04:15:18;;;;;;;10.67;6.60;;;12.90;99.90;;;;;;4963950;28;20478;-94
2022/09/21 04:17:45;;;;;;;9.30;6.77;;;12.90;99.90;;;;;;4983124;28;20422;-90
2022/09/21 04:20:12;;;;;;;10.50;7.27;;;12.90;99.90;;;;;;4968179;28;20437;-95
2022/09/21 04:22:38;;;;;;;7.57;5.83;;;12.90;99.90;;;;;;4969298;28;20801;-90
2022/09/21 04:25:05;;;;;;;9.27;6.33;;;12.90;99.90;;;;;;4984941;28;20408;-94
2022/09/21 04:27:32;;;;;;;7.57;6.00;;;13.00;99.90;;;;;;4966116;28;20185;-89
2022/09/21 04:29:58;;;;;;;8.63;5.43;;;12.90;99.90;;;;;;4967001;28;20434;-91
2022/09/21 04:32:24;;;;;;;11.70;6.40;;;13.00;99.90;;;;;;4965397;28;20793;-89
2022/09/21 04:34:50;;;;;;;8.37;5.90;;;13.00;99.90;;;;;;4964364;28;20413;-94
2022/09/21 04:37:19;;;;;;;11.47;6.53;;;13.00;99.90;;;;;;4984480;28;20216;-95
2022/09/21 04:39:44;;;;;;;9.57;7.10;;;13.00;99.90;;;;;;4968342;28;20435;-88
2022/09/21 04:42:10;;;;;;;9.00;7.03;;;13.10;99.90;;;;;;4974368;28;20455;-89
2022/09/21 04:44:36;;;;;;;11.80;7.50;;;13.10;99.90;;;;;;4989947;28;20680;-88
2022/09/21 04:47:01;;;;;;;7.13;6.20;;;13.10;99.90;;;;;;4991300;28;20184;-89
2022/09/21 04:49:27;;;;;;;9.33;6.40;;;13.10;99.90;;;;;;4990986;28;20729;-88
2022/09/21 04:51:52;;;;;;;8.57;6.87;;;13.10;99.90;;;;;;4985769;28;20180;-89
2022/09/21 04:54:18;;;;;;;8.20;6.63;;;13.10;99.90;;;;;;4980881;28;20219;-91
2022/09/21 04:56:43;;;;;;;7.57;5.93;;;13.10;99.90;;;;;;4981328;28;20212;-93
2022/09/21 04:59:09;;;;;;;9.13;7.50;;;13.10;99.90;;;;;;4965136;28;20216;-92
2022/09/21 05:01:35;;;;;;;8.67;6.97;;;13.10;99.90;;;;;;4983667;28;20193;-89
2022/09/21 05:04:01;;;;;;;8.97;6.77;;;13.10;99.90;;;;;;4966689;28;20613;-88
2022/09/21 05:06:32;;;;;;;7.50;6.43;;;13.10;99.90;;;;;;4968042;28;20430;-93
2022/09/21 05:11:42;;;;;;;9.70;7.70;;;13.10;99.90;;;;;;4987454;28;20469;-94
2022/09/21 05:14:08;;;;;;;12.00;7.50;;;13.10;99.90;;;;;;4989847;28;20424;-94
2022/09/21 05:16:34;;;;;;;8.33;6.40;;;13.10;99.90;;;;;;4961990;28;20487;-94
2022/09/21 05:19:00;;;;;;;8.93;6.43;;;13.10;99.90;;;;;;4949222;28;20488;-89
2022/09/21 05:21:26;;;;;;;8.97;6.53;;;13.10;99.90;;;;;;4973981;28;20431;-88
2022/09/21 05:23:52;;;;;;;11.37;7.20;;;13.00;99.90;;;;;;4946130;29;20185;-89
2022/09/21 05:26:18;;;;;;;11.43;7.00;;;13.00;99.90;;;;;;4942330;29;20772;-94
2022/09/21 05:28:44;;;;;;;10.40;7.00;;;13.00;99.90;;;;;;4942880;29;20557;-94
2022/09/21 05:31:16;;;;;;;8.03;6.57;;;13.00;99.90;;;;;;4948365;29;20406;-87
2022/09/21 05:33:49;;;;;;;9.80;6.37;;;13.00;99.90;;;;;;4948335;29;20395;-87
2022/09/21 05:36:51;;;;;;;9.80;6.37;;;13.00;99.90;;;;;;4947567;29;20546;-94
2022/09/21 05:39:17;;;;;;;12.03;6.90;;;13.10;99.90;;;;;;4932929;28;20448;-94
2022/09/21 05:41:45;;;;;;;9.27;6.27;;;13.10;99.90;;;;;;4980076;28;20605;-89
2022/09/21 05:44:16;;;;;;;17.20;10.23;;;13.10;99.90;;;;;;4961370;28;20417;-93
2022/09/21 05:47:00;;;;;;;9.60;7.10;;;13.10;99.90;;;;;;4979130;28;20417;-89
2022/09/21 05:49:58;;;;;;;10.67;7.37;;;13.20;99.90;;;;;;4962804;28;20448;-94
2022/09/21 05:52:35;;;;;;;10.83;6.70;;;13.20;99.90;;;;;;4964713;28;20520;-89
2022/09/21 05:55:11;;;;;;;7.27;6.30;;;13.20;99.90;;;;;;4961604;28;20446;-94
2022/09/21 05:58:20;;;;;;;7.00;5.90;;;13.20;99.90;;;;;;4980399;28;20448;-88
2022/09/21 06:01:15;;;;;;;10.20;7.03;;;13.20;99.90;;;;;;4959660;29;20917;-89
2022/09/21 06:03:42;;;;;;;9.23;6.73;;;13.20;99.90;;;;;;4958325;29;20423;-89
2022/09/21 06:06:08;;;;;;;8.47;6.17;;;13.20;99.90;;;;;;4942438;28;20675;-93
2022/09/21 06:08:34;;;;;;;10.00;6.67;;;13.30;99.90;;;;;;4967016;28;20434;-89
2022/09/21 06:11:00;;;;;;;8.20;6.03;;;13.30;99.90;;;;;;4986801;28;21066;-89
2022/09/21 06:13:26;;;;;;;11.03;6.50;;;13.30;99.90;;;;;;4979952;28;20177;-94
2022/09/21 06:15:52;;;;;;;9.97;6.83;;;13.30;99.90;;;;;;4963801;28;20246;-89
2022/09/21 06:18:18;;;;;;;7.50;6.03;;;13.40;99.90;;;;;;4959310;28;20188;-93
2022/09/21 06:20:44;;;;;;;8.37;6.30;;;13.40;99.90;;;;;;4964332;28;20457;-94
2022/09/21 06:23:12;;;;;;;7.43;6.67;;;13.40;99.90;;;;;;4959390;28;20188;-89
2022/09/21 06:25:38;;;;;;;6.93;6.23;;;13.50;99.90;;;;;;4958979;28;20531;-94
2022/09/21 06:28:11;;;;;;;6.63;5.90;;;13.50;99.90;;;;;;4957958;28;20868;-94
2022/09/21 06:30:39;;;;;;;11.53;7.00;;;13.50;99.90;;;;;;4960901;28;20809;-89
2022/09/21 06:33:06;;;;;;;7.60;5.67;;;13.50;99.90;;;;;;4975333;28;20799;-88
2022/09/21 06:35:33;;;;;;;5.40;4.90;;;13.60;99.90;;;;;;4957989;28;20466;-89
2022/09/21 06:38:07;;;;;;;8.73;6.57;;;13.60;99.90;;;;;;4958783;28;20411;-93
2022/09/21 06:40:35;;;;;;;8.90;6.97;;;13.70;99.90;;;;;;4959840;28;20480;-93
2022/09/21 06:43:03;;;;;;;5.83;5.00;;;13.70;99.90;;;;;;4978268;28;20915;-89
2022/09/21 06:45:29;;;;;;;7.47;5.23;;;13.70;99.90;;;;;;4960658;28;20534;-88
2022/09/21 06:47:56;;;;;;;7.77;5.87;;;13.60;99.90;;;;;;4975376;28;20458;-88
2022/09/21 06:50:22;;;;;;;7.63;5.40;;;13.60;99.90;;;;;;4960532;28;20438;-93
2022/09/21 06:52:48;;;;;;;9.90;5.70;;;13.60;99.90;;;;;;4977992;28;20430;-94
2022/09/21 06:55:14;;;;;;;6.37;4.73;;;13.60;99.90;;;;;;4962281;28;20440;-88
2022/09/21 06:57:39;;;;;;;5.07;4.47;;;13.60;99.90;;;;;;4973974;28;20250;-90
2022/09/21 07:00:08;;;;;;;7.80;5.67;;;13.60;99.90;;;;;;4981885;28;20214;-91
2022/09/21 07:02:34;;;;;;;7.50;5.83;;;13.60;99.90;;;;;;4965581;28;20260;-94
2022/09/21 07:05:00;;;;;;;6.20;4.90;;;13.70;99.90;;;;;;4961430;28;20442;-93
2022/09/21 07:07:31;;;;;;;5.97;4.80;;;13.70;99.90;;;;;;4969582;28;20447;-92
2022/09/21 07:09:58;;;;;;;6.93;5.30;;;13.70;99.90;;;;;;4974972;28;20480;-93
2022/09/21 07:12:27;;;;;;;7.23;5.40;;;13.70;99.90;;;;;;4959481;28;20469;-93
2022/09/21 07:14:55;;;;;;;6.70;5.30;;;13.80;99.90;;;;;;4967464;28;20445;-94
2022/09/21 07:17:22;;;;;;;7.33;5.33;;;13.80;99.90;;;;;;4953992;28;20489;-91
2022/09/21 07:19:48;;;;;;;7.50;4.87;;;13.80;99.90;;;;;;4959880;28;20479;-93
2022/09/21 07:22:14;;;;;;;7.70;5.50;;;13.90;99.90;;;;;;4965624;28;20438;-93
2022/09/21 07:24:44;;;;;;;6.53;5.13;;;14.00;99.90;;;;;;4969137;28;21030;-94
2022/09/21 07:27:10;;;;;;;7.43;5.53;;;14.10;99.90;;;;;;4982805;28;20442;-94
2022/09/21 07:29:38;;;;;;;9.30;5.50;;;14.20;99.90;;;;;;4976191;28;20441;-94
2022/09/21 07:32:12;;;;;;;6.27;5.57;;;14.30;99.90;;;;;;4971411;28;20255;-93
2022/09/21 07:34:41;;;;;;;5.60;4.67;;;14.40;99.90;;;;;;4968778;28;20517;-94
2022/09/21 07:37:06;;;;;;;6.00;4.87;;;14.40;99.90;;;;;;4964852;28;20535;-94
2022/09/21 07:39:32;;;;;;;5.07;4.20;;;14.50;99.90;;;;;;4963688;28;20538;-94
2022/09/21 07:41:58;;;;;;;6.03;4.60;;;14.50;99.90;;;;;;4961581;28;20450;-94
2022/09/21 07:44:25;;;;;;;7.00;5.03;;;14.50;99.90;;;;;;4967496;28;20200;-95
2022/09/21 07:46:51;;;;;;;16.57;11.10;;;14.60;99.90;;;;;;4966962;28;20437;-94
2022/09/21 07:49:17;;;;;;;6.07;4.70;;;14.60;99.90;;;;;;4968656;28;20469;-94
2022/09/21 07:51:43;;;;;;;5.87;4.23;;;14.70;99.90;;;;;;4964636;28;20259;-93
2022/09/21 07:54:11;;;;;;;4.20;3.67;;;14.80;99.90;;;;;;4970437;28;20204;-94
2022/09/21 07:56:37;;;;;;;4.80;3.43;;;15.00;99.90;;;;;;4966724;28;20678;-94
2022/09/21 07:59:06;;;;;;;4.70;3.90;;;15.10;99.90;;;;;;4965644;28;20458;-93
2022/09/21 08:01:34;;;;;;;3.93;3.50;;;15.30;99.90;;;;;;4956805;28;20537;-95
2022/09/21 08:04:00;;;;;;;3.97;3.60;;;15.50;99.90;;;;;;4965591;28;20426;-94
2022/09/21 08:06:29;;;;;;;4.83;3.50;;;15.60;99.90;;;;;;4968443;28;20422;-95
2022/09/21 08:08:59;;;;;;;4.80;4.37;;;15.70;99.90;;;;;;4966328;28;20481;-94
2022/09/21 08:11:27;;;;;;;3.77;3.37;;;15.80;99.90;;;;;;4968223;28;20442;-94
2022/09/21 08:13:55;;;;;;;4.17;3.40;;;15.80;99.90;;;;;;4983431;28;20486;-95
2022/09/21 08:16:20;;;;;;;10.90;3.50;;;15.80;99.90;;;;;;4972845;28;20549;-95
2022/09/21 08:18:46;;;;;;;6.03;3.27;;;15.80;99.90;;;;;;4976827;28;20426;-94
2022/09/21 08:21:13;;;;;;;4.60;3.60;;;15.90;99.90;;;;;;4972675;28;20457;-94
2022/09/21 08:23:42;;;;;;;4.07;2.80;;;15.90;99.90;;;;;;4976039;28;20503;-94
2022/09/21 08:26:18;;;;;;;5.70;3.10;;;15.90;99.90;;;;;;4971406;28;20497;-94
2022/09/21 08:28:48;;;;;;;3.50;2.97;;;16.00;99.90;;;;;;4970282;28;20429;-95
2022/09/21 08:31:17;;;;;;;3.40;2.73;;;16.00;99.90;;;;;;4983079;28;20450;-94
2022/09/21 08:33:43;;;;;;;3.90;2.67;;;16.10;99.90;;;;;;4970738;28;20496;-93
2022/09/21 08:36:10;;;;;;;4.87;3.57;;;16.10;99.90;;;;;;4967037;28;20515;-93
2022/09/21 08:38:38;;;;;;;3.27;2.97;;;16.20;99.90;;;;;;4970952;28;20184;-94
2022/09/21 08:41:13;;;;;;;3.60;3.13;;;16.20;99.90;;;;;;4970801;28;21064;-94
2022/09/21 08:43:51;;;;;;;3.50;2.70;;;16.20;99.90;;;;;;4962298;28;20449;-94
2022/09/21 08:46:21;;;;;;;2.40;2.10;;;16.30;99.90;;;;;;4964778;28;20446;-94
2022/09/21 08:48:54;;;;;;;2.40;2.00;;;16.40;99.90;;;;;;4963082;28;20468;-94
2022/09/21 08:51:28;;;;;;;2.90;2.30;;;16.40;99.90;;;;;;4968347;28;20421;-95
2022/09/21 08:54:01;;;;;;;4.57;2.40;;;16.40;99.90;;;;;;4962045;28;20438;-95
2022/09/21 08:56:28;;;;;;;4.17;2.77;;;16.40;99.90;;;;;;4963296;28;20501;-94
2022/09/21 08:58:54;;;;;;;3.40;3.00;;;16.50;99.90;;;;;;4963543;28;20438;-95
2022/09/21 09:01:22;;;;;;;2.80;2.53;;;16.60;99.90;;;;;;4967999;28;20802;-93
2022/09/21 09:04:29;;;;;;;2.70;2.37;;;16.70;99.90;;;;;;4968671;28;20498;-94
2022/09/21 09:07:22;;;;;;;3.93;2.20;;;16.80;99.90;;;;;;4948371;28;20433;-94
2022/09/21 09:10:36;;;;;;;2.20;2.00;;;16.90;99.90;;;;;;4952900;28;20739;-94
2022/09/21 09:13:32;;;;;;;3.10;1.87;;;17.00;99.90;;;;;;4954269;28;20799;-94
2022/09/21 09:16:27;;;;;;;2.40;2.20;;;17.10;99.90;;;;;;4955611;29;20553;-96
2022/09/21 09:19:11;;;;;;;2.20;2.00;;;17.20;99.90;;;;;;4959591;28;20545;-96
2022/09/21 09:21:40;;;;;;;2.33;1.70;;;17.30;99.90;;;;;;4956211;29;20442;-91
2022/09/21 09:24:18;;;;;;;2.27;2.03;;;17.40;99.90;;;;;;4947934;28;20454;-91
2022/09/21 09:26:48;;;;;;;2.30;1.90;;;17.50;99.90;;;;;;4966983;28;20450;-92
2022/09/21 09:29:32;;;;;;;1.90;1.80;;;17.50;99.90;;;;;;4971740;28;20504;-91
2022/09/21 09:32:00;;;;;;;3.23;2.23;;;17.60;99.90;;;;;;4966413;28;20458;-95
2022/09/21 09:34:41;;;;;;;3.50;2.50;;;17.60;99.90;;;;;;4964227;28;20485;-92
2022/09/21 09:37:12;;;;;;;2.03;1.83;;;17.70;99.90;;;;;;4953540;28;20524;-91
2022/09/21 09:39:41;;;;;;;4.53;2.10;;;17.80;99.90;;;;;;4938794;28;20541;-92
2022/09/21 09:42:18;;;;;;;4.77;2.47;;;17.80;99.90;;;;;;4945703;28;20426;-94
2022/09/21 09:44:54;;;;;;;2.00;1.90;;;17.90;99.90;;;;;;4954401;28;20501;-92
2022/09/21 09:47:44;;;;;;;3.17;2.57;;;17.90;99.90;;;;;;4975718;28;20453;-92
2022/09/21 09:50:20;;;;;;;3.33;3.00;;;17.90;99.90;;;;;;4960274;28;20579;-96
2022/09/21 09:52:47;;;;;;;4.73;2.83;;;18.00;99.90;;;;;;4963335;28;20455;-93
2022/09/21 09:55:23;;;;;;;2.40;2.20;;;18.00;99.90;;;;;;4957582;28;20576;-93
2022/09/21 09:57:50;;;;;;;3.37;3.03;;;18.00;99.90;;;;;;4950612;28;20831;-93
2022/09/21 10:00:19;;;;;;;2.53;2.33;;;18.10;99.90;;;;;;4951086;28;20451;-93
2022/09/21 10:02:49;;;;;;;4.00;3.27;;;18.10;99.90;;;;;;4960442;28;20474;-96
2022/09/21 10:05:31;;;;;;;4.90;3.60;;;18.00;99.90;;;;;;4980437;28;20443;-92
2022/09/21 10:07:58;;;;;;;5.47;3.77;;;18.00;99.90;;;;;;4972828;28;20533;-92
2022/09/21 10:10:32;;;;;;;5.33;3.70;;;18.00;99.90;;;;;;4961183;28;20524;-95
2022/09/21 10:13:13;;;;;;;4.13;3.37;;;18.00;99.90;;;;;;4959402;28;20463;-93
2022/09/21 10:15:54;;;;;;;3.43;3.13;;;18.00;99.90;;;;;;4961262;28;21006;-92
2022/09/21 10:18:39;;;;;;;3.60;3.30;;;18.00;99.90;;;;;;4955768;28;20453;-91
2022/09/21 10:21:06;;;;;;;3.37;2.80;;;18.00;99.90;;;;;;4956630;28;20854;-93
2022/09/21 10:23:34;;;;;;;2.70;2.50;;;18.00;99.90;;;;;;4955112;28;20431;-94
2022/09/21 10:26:03;;;;;;;8.00;5.47;;;18.10;99.90;;;;;;4976648;28;20449;-96
2022/09/21 10:28:30;;;;;;;5.33;3.70;;;18.10;99.90;;;;;;4959072;28;20465;-93
2022/09/21 10:31:22;;;;;;;3.30;3.00;;;18.10;99.90;;;;;;4979674;28;20489;-96
2022/09/21 10:34:03;;;;;;;4.53;3.43;;;18.10;99.90;;;;;;4981530;28;20437;-96
2022/09/21 10:36:37;;;;;;;3.80;3.33;;;18.00;99.90;;;;;;4978368;28;20986;-95
2022/09/21 10:39:23;;;;;;;4.40;3.83;;;18.00;99.90;;;;;;4978317;28;20867;-93
2022/09/21 10:41:56;;;;;;;3.90;3.53;;;18.00;99.90;;;;;;4975019;28;20997;-93
2022/09/21 10:44:32;;;;;;;3.37;3.13;;;17.90;99.90;;;;;;4990457;28;20446;-95
2022/09/21 10:47:12;;;;;;;6.87;3.20;;;17.90;99.90;;;;;;4978609;28;20846;-93
2022/09/21 10:49:49;;;;;;;3.80;2.97;;;17.80;99.90;;;;;;4991157;28;20438;-96
2022/09/21 10:52:19;;;;;;;3.77;3.40;;;17.70;99.90;;;;;;4977059;28;20429;-95
2022/09/21 10:54:50;;;;;;;4.20;3.13;;;17.70;99.90;;;;;;4977100;28;20458;-94
2022/09/21 10:57:19;;;;;;;26.40;4.80;;;17.70;99.90;;;;;;4978485;28;20821;-94
2022/09/21 10:59:45;;;;;;;4.73;4.30;;;17.70;99.90;;;;;;4984127;28;20463;-93
2022/09/21 11:02:30;;;;;;;5.90;3.90;;;17.70;99.90;;;;;;4989219;28;20456;-93
2022/09/21 11:05:19;;;;;;;4.43;2.70;;;17.70;99.90;;;;;;4990280;28;20472;-93
2022/09/21 11:07:59;;;;;;;2.67;2.47;;;17.70;99.90;;;;;;4986422;28;21005;-93
2022/09/21 11:11:05;;;;;;;2.80;2.60;;;17.80;99.90;;;;;;4972935;28;20477;-94
2022/09/21 11:13:46;;;;;;;3.10;2.80;;;17.90;99.90;;;;;;5005000;28;21030;-93
2022/09/21 11:16:25;;;;;;;4.83;2.37;;;18.00;99.90;;;;;;4983224;28;20492;-93
2022/09/21 11:18:56;;;;;;;3.50;2.50;;;18.00;99.90;;;;;;4994252;28;20481;-95
2022/09/21 11:21:35;;;;;;;3.20;2.80;;;18.10;99.90;;;;;;4987844;28;20570;-95
2022/09/21 11:24:38;;;;;;;3.43;3.13;;;18.20;99.90;;;;;;4971696;28;20503;-96
2022/09/21 11:27:18;;;;;;;164.97;18.60;;;18.30;99.90;;;;;;4991512;28;20466;-95
2022/09/21 11:29:52;;;;;;;59.80;8.40;;;18.40;99.90;;;;;;4991982;28;20469;-93
2022/09/21 11:32:56;;;;;;;3.30;2.67;;;18.40;99.90;;;;;;4969619;28;20560;-93
2022/09/21 11:35:52;;;;;;;5.17;3.10;;;18.50;99.90;;;;;;4971714;28;20453;-93
2022/09/21 11:39:00;;;;;;;6.50;3.00;;;18.50;99.90;;;;;;4973098;28;20437;-93
2022/09/21 11:42:05;;;;;;;2.63;2.37;;;18.50;99.90;;;;;;4957373;28;20454;-95
2022/09/21 11:44:42;;;;;;;2.70;2.50;;;18.50;99.90;;;;;;4936229;28;20469;-95
2022/09/21 11:47:38;;;;;;;3.23;2.93;;;18.50;99.90;;;;;;4937804;29;21108;-94
2022/09/21 11:50:14;;;;;;;3.10;2.90;;;18.40;99.90;;;;;;4948165;28;21016;-95
2022/09/21 11:52:47;;;;;;;2.83;2.63;;;18.40;99.90;;;;;;4939939;29;20434;-94
2022/09/21 11:55:35;;;;;;;3.03;2.73;;;18.30;99.90;;;;;;4936315;29;20536;-95
2022/09/21 11:58:09;;;;;;;2.70;2.50;;;18.20;99.90;;;;;;4936999;29;20452;-95
2022/09/21 12:00:57;;;;;;;2.10;2.00;;;18.10;99.90;;;;;;4934296;29;20477;-96
2022/09/21 12:03:47;;;;;;;3.07;2.87;;;18.10;99.90;;;;;;4945316;28;20429;-93
2022/09/21 12:06:27;;;;;;;2.80;2.47;;;18.00;99.90;;;;;;4956243;29;20506;-94
2022/09/21 12:09:12;;;;;;;2.90;2.70;;;17.90;99.90;;;;;;4930474;29;20444;-95
2022/09/21 12:11:43;;;;;;;2.67;2.43;;;17.90;99.90;;;;;;4932495;28;20451;-95
2022/09/21 12:14:14;;;;;;;2.83;2.60;;;17.80;99.90;;;;;;4941824;29;20436;-94
2022/09/21 12:16:39;;;;;;;3.37;3.17;;;17.80;99.90;;;;;;4939571;29;20507;-93
2022/09/21 12:19:15;;;;;;;3.03;2.80;;;17.80;99.90;;;;;;4935870;29;20458;-95
2022/09/21 12:21:48;;;;;;;3.10;2.40;;;17.80;99.90;;;;;;4955461;29;20524;-95
2022/09/21 12:24:21;;;;;;;3.23;3.00;;;17.80;99.90;;;;;;4937708;29;20448;-95
2022/09/21 12:26:54;;;;;;;2.97;2.67;;;17.80;99.90;;;;;;4954392;29;20412;-93
2022/09/21 12:29:46;;;;;;;2.77;2.57;;;17.90;99.90;;;;;;4935260;29;20444;-94
2022/09/21 12:32:27;;;;;;;3.03;2.37;;;18.00;99.90;;;;;;4935776;29;20438;-94
2022/09/21 12:34:56;;;;;;;3.17;2.97;;;18.00;99.90;;;;;;4943374;29;20479;-93
2022/09/21 12:37:34;;;;;;;2.90;2.67;;;18.00;99.90;;;;;;4951105;29;20472;-95
2022/09/21 12:40:23;;;;;;;4.83;2.93;;;18.10;99.90;;;;;;4945817;28;20531;-93
2022/09/21 12:43:07;;;;;;;3.83;3.53;;;18.10;99.90;;;;;;4967721;28;21198;-94
2022/09/21 12:45:49;;;;;;;2.93;2.73;;;18.10;99.90;;;;;;4956110;28;20467;-91
2022/09/21 12:48:37;;;;;;;2.97;2.50;;;18.10;99.90;;;;;;4952022;28;20520;-94
2022/09/21 12:51:14;;;;;;;3.50;3.20;;;18.10;99.90;;;;;;4956749;28;20469;-91
2022/09/21 12:53:47;;;;;;;2.80;2.53;;;18.10;99.90;;;;;;4973033;28;20515;-94
2022/09/21 12:56:42;;;;;;;3.47;3.00;;;18.20;99.90;;;;;;4954737;28;20481;-92
2022/09/21 12:59:20;;;;;;;3.17;2.87;;;18.20;99.90;;;;;;4971482;28;20535;-92
2022/09/21 13:01:56;;;;;;;3.60;3.13;;;18.20;99.90;;;;;;4977121;28;20925;-93
2022/09/21 13:04:34;;;;;;;3.93;3.63;;;18.20;99.90;;;;;;4977620;28;20450;-95
2022/09/21 13:07:31;;;;;;;3.33;3.03;;;18.20;99.90;;;;;;4975140;28;20440;-94
2022/09/21 13:09:58;;;;;;;2.20;2.10;;;18.20;99.90;;;;;;4957857;28;20559;-92
2022/09/21 13:12:32;;;;;;;2.80;2.33;;;18.20;99.90;;;;;;4974162;28;20457;-95
2022/09/21 13:15:24;;;;;;;2.93;2.63;;;18.20;99.90;;;;;;4957621;28;20464;-94
2022/09/21 13:18:04;;;;;;;3.03;2.80;;;18.20;99.90;;;;;;4977527;28;20485;-94
2022/09/21 13:20:38;;;;;;;2.83;2.63;;;18.20;99.90;;;;;;4957578;28;20530;-92